Current Conditions
Partly Cloudy
Conditions



Pressure
1031.92 (hPa) - 30.47 (inHG)
Visibility

0.0 (km) - 0.0 (miles)
   Temperature
2  °C
36°F
-3  °C
Dewpoint
70  %
 Humidity
   Wind Speed
11  km/h
6  kts
7  mph
3.1  m/s
   Wind Direction
Calm
Due North
   Airport Data
LSMM
Location Meiringen 6 km (3.73 mi)
Metar :LSMM 191150Z AUTO VRB06G17KT 9999NDV FEW049 BKN065 02/M03 Q1032 RMK
Sun 19th January 13:50 pm
   Raw Metar Info
Raw METAR is the most common format in the world for the transmission of observational weather data. It is highly standardized through the International Civil Aviation Organization (ICAO), which allows it to be understood throughout most of the world.
   API Info
Data Provided by
https://www.checkwx.com/weather/LSMM
   © Info
CSS/SVG/PHP scripts were developed by weather34.com for use in the weather34 template © 2015-2020

Guide Info provided by Metar-Wikipedia